createdAt,value
2022-10-10T00:02:22.544Z,13.63
2022-10-10T00:04:54.488Z,14.32
2022-10-10T00:07:26.208Z,15.27
2022-10-10T00:09:57.857Z,15.45
2022-10-10T00:12:29.681Z,16.85
2022-10-10T00:15:01.403Z,15.15
2022-10-10T00:17:33.104Z,13.07
2022-10-10T00:20:08.120Z,18.17
2022-10-10T00:22:39.963Z,16.85
2022-10-10T00:25:11.929Z,16.33
2022-10-10T00:27:43.655Z,18.33
2022-10-10T00:30:18.535Z,15.00
2022-10-10T00:32:50.330Z,15.48
2022-10-10T00:35:22.119Z,16.13
2022-10-10T00:37:56.918Z,14.65
2022-10-10T00:40:29.332Z,16.67
2022-10-10T00:43:01.195Z,13.15
2022-10-10T00:45:35.408Z,14.02
2022-10-10T00:48:12.490Z,13.70
2022-10-10T00:51:03.686Z,14.10
2022-10-10T00:53:47.995Z,14.18
2022-10-10T00:56:22.614Z,13.88
2022-10-10T00:58:58.152Z,15.18
2022-10-10T01:01:29.878Z,13.10
2022-10-10T01:04:03.884Z,14.20
2022-10-10T01:06:35.649Z,16.08
2022-10-10T01:09:07.352Z,15.88
2022-10-10T01:11:49.830Z,13.05
2022-10-10T01:15:02.639Z,15.82
2022-10-10T01:18:04.597Z,17.08
2022-10-10T01:20:54.723Z,13.27
2022-10-10T01:24:00.349Z,15.43
2022-10-10T01:26:40.944Z,14.82
2022-10-10T01:29:40.832Z,15.43
2022-10-10T01:32:34.112Z,12.32
2022-10-10T01:35:43.371Z,15.35
2022-10-10T01:38:27.909Z,14.93
2022-10-10T01:41:19.811Z,13.52
2022-10-10T01:43:55.874Z,14.52
2022-10-10T01:46:27.639Z,13.10
2022-10-10T01:49:01.262Z,13.32
2022-10-10T01:51:51.635Z,16.35
2022-10-10T01:54:35.813Z,14.68
2022-10-10T01:57:31.691Z,14.97
2022-10-10T02:00:13.366Z,13.85
2022-10-10T02:02:52.811Z,12.68
2022-10-10T02:05:36.563Z,12.73
2022-10-10T02:08:36.212Z,14.27
2022-10-10T02:11:13.258Z,14.23
2022-10-10T02:13:53.226Z,13.18
2022-10-10T02:16:30.807Z,17.10
2022-10-10T02:19:06.050Z,13.63
2022-10-10T02:21:40.513Z,13.45
2022-10-10T02:24:13.792Z,14.73
2022-10-10T02:26:54.495Z,14.40
2022-10-10T02:29:31.808Z,12.32
2022-10-10T02:32:17.363Z,16.75
2022-10-10T02:34:55.587Z,15.60
2022-10-10T02:37:27.964Z,12.98
2022-10-10T02:40:02.842Z,13.85
2022-10-10T02:42:37.040Z,14.63
2022-10-10T02:45:12.002Z,14.45
2022-10-10T02:47:45.956Z,13.57
2022-10-10T02:50:17.930Z,12.27
2022-10-10T02:52:49.744Z,11.32
2022-10-10T02:55:21.662Z,11.50
2022-10-10T02:57:53.530Z,10.32
2022-10-10T03:00:25.216Z,12.38
2022-10-10T03:02:56.909Z,12.93
2022-10-10T03:05:28.587Z,12.68
2022-10-10T03:08:03.809Z,10.27
2022-10-10T03:10:40.385Z,8.23
2022-10-10T03:13:12.147Z,10.32
2022-10-10T03:15:43.800Z,12.50
2022-10-10T03:18:15.424Z,9.52
2022-10-10T03:20:54.030Z,11.82
2022-10-10T03:23:25.869Z,12.25
2022-10-10T03:25:57.576Z,13.70
2022-10-10T03:28:29.405Z,11.35
2022-10-10T03:31:01.127Z,11.88
2022-10-10T03:33:34.592Z,8.13
2022-10-10T03:36:06.613Z,12.35
2022-10-10T03:38:39.953Z,10.85
2022-10-10T03:41:11.883Z,10.68
2022-10-10T03:43:43.532Z,13.23
2022-10-10T03:46:16.371Z,10.30
2022-10-10T03:48:48.528Z,12.25
2022-10-10T03:51:23.374Z,13.90
2022-10-10T03:53:55.157Z,11.32
2022-10-10T03:56:26.787Z,8.82
2022-10-10T03:59:00.745Z,7.43
2022-10-10T04:01:33.282Z,12.93
2022-10-10T04:04:05.219Z,13.65
2022-10-10T04:06:36.935Z,11.30
2022-10-10T04:09:08.581Z,10.27
2022-10-10T04:11:41.038Z,12.65
2022-10-10T04:14:12.766Z,13.98
2022-10-10T04:16:44.396Z,14.70
2022-10-10T04:19:16.076Z,9.93
2022-10-10T04:21:47.682Z,11.63
2022-10-10T04:24:20.425Z,11.75
2022-10-10T04:26:52.165Z,10.13
2022-10-10T04:29:24.049Z,8.35
2022-10-10T04:31:55.704Z,9.73
2022-10-10T04:34:28.386Z,10.60
2022-10-10T04:37:00.097Z,15.50
2022-10-10T04:39:31.800Z,16.35
2022-10-10T04:42:03.668Z,11.30
2022-10-10T04:44:35.307Z,9.30
2022-10-10T04:47:10.071Z,10.68
2022-10-10T04:49:42.201Z,10.30
2022-10-10T04:52:13.960Z,11.82
2022-10-10T04:54:45.609Z,11.93
2022-10-10T04:57:17.332Z,11.48
2022-10-10T04:59:50.003Z,9.90
2022-10-10T05:02:21.706Z,12.05
2022-10-10T05:04:53.299Z,12.75
2022-10-10T05:07:24.978Z,13.15
2022-10-10T05:09:56.628Z,10.15
2022-10-10T05:12:28.465Z,7.82
2022-10-10T05:15:03.222Z,8.98
2022-10-10T05:17:35.142Z,11.02
2022-10-10T05:20:07.084Z,10.38
2022-10-10T05:22:38.899Z,9.07
2022-10-10T05:25:11.156Z,10.73
2022-10-10T05:27:45.041Z,10.55
2022-10-10T05:30:16.828Z,9.50
2022-10-10T05:32:48.705Z,12.30
2022-10-10T05:35:20.687Z,11.65
2022-10-10T05:37:52.356Z,10.68
2022-10-10T05:40:24.147Z,10.88
2022-10-10T05:42:55.853Z,10.85
2022-10-10T05:45:30.446Z,9.65
2022-10-10T05:48:02.308Z,15.15
2022-10-10T05:50:38.730Z,14.02
2022-10-10T05:53:10.479Z,10.93
2022-10-10T05:55:45.375Z,10.95
2022-10-10T05:58:20.438Z,13.85
2022-10-10T06:00:52.397Z,9.70
2022-10-10T06:03:24.367Z,13.00
2022-10-10T06:05:55.994Z,10.73
2022-10-10T06:08:34.151Z,8.98
2022-10-10T06:11:11.183Z,9.57
2022-10-10T06:13:43.857Z,7.45
2022-10-10T06:16:15.642Z,11.27
2022-10-10T06:18:47.506Z,7.97
2022-10-10T06:21:19.789Z,8.93
2022-10-10T06:23:51.836Z,9.20
2022-10-10T06:26:23.702Z,8.80
2022-10-10T06:28:55.700Z,9.00
2022-10-10T06:31:27.368Z,9.68
2022-10-10T06:33:59.149Z,14.13
2022-10-10T06:36:31.313Z,8.95
2022-10-10T06:39:03.046Z,7.50
2022-10-10T06:41:34.925Z,8.52
2022-10-10T06:44:17.905Z,7.88
2022-10-10T06:46:49.570Z,9.18
2022-10-10T06:49:33.771Z,8.13
2022-10-10T06:52:08.747Z,10.65
2022-10-10T06:54:43.379Z,7.32
2022-10-10T06:57:15.150Z,8.55
2022-10-10T06:59:46.858Z,7.80
2022-10-10T07:02:19.885Z,8.27
2022-10-10T07:04:51.917Z,7.80
2022-10-10T07:07:25.812Z,9.68
2022-10-10T07:09:57.652Z,10.52
2022-10-10T07:12:31.859Z,8.48
2022-10-10T07:15:06.866Z,10.75
2022-10-10T07:17:38.544Z,7.82
2022-10-10T07:20:10.346Z,7.65
2022-10-10T07:22:42.310Z,10.38
2022-10-10T07:25:14.096Z,7.70
2022-10-10T07:27:45.938Z,8.85
2022-10-10T07:30:17.774Z,9.07
2022-10-10T07:32:49.969Z,9.57
2022-10-10T07:35:22.647Z,8.00
2022-10-10T07:37:56.087Z,9.60
2022-10-10T07:40:27.996Z,8.50
2022-10-10T07:42:59.732Z,11.07
2022-10-10T07:45:31.579Z,11.68
2022-10-10T07:48:03.807Z,6.20
2022-10-10T07:50:35.755Z,10.02
2022-10-10T07:53:08.097Z,9.27
2022-10-10T07:55:43.800Z,8.90
2022-10-10T07:58:15.627Z,9.30
2022-10-10T08:00:47.368Z,10.02
2022-10-10T08:03:21.041Z,8.35
2022-10-10T08:05:52.972Z,6.75
2022-10-10T08:08:24.896Z,8.80
2022-10-10T08:10:57.933Z,11.05
2022-10-10T08:13:29.617Z,8.77
2022-10-10T08:16:01.801Z,6.32
2022-10-10T08:18:33.599Z,10.07
2022-10-10T08:21:10.807Z,9.77
2022-10-10T08:23:42.674Z,9.18
2022-10-10T08:26:16.121Z,8.43
2022-10-10T08:28:48.706Z,10.93
2022-10-10T08:31:22.848Z,9.43
2022-10-10T08:33:56.317Z,8.68
2022-10-10T08:36:28.326Z,9.07
2022-10-10T08:39:01.595Z,9.00
2022-10-10T08:41:40.644Z,8.82
2022-10-10T08:44:21.962Z,18.13
2022-10-10T08:47:01.858Z,9.15
2022-10-10T08:49:45.699Z,9.20
2022-10-10T08:52:29.632Z,10.98
2022-10-10T08:55:05.106Z,7.60
2022-10-10T08:57:48.316Z,9.02
2022-10-10T09:00:22.863Z,7.22
2022-10-10T09:02:58.307Z,9.85
2022-10-10T09:06:08.472Z,8.55
2022-10-10T09:08:56.191Z,9.55
2022-10-10T09:12:01.669Z,7.18
2022-10-10T09:14:44.938Z,6.40
2022-10-10T09:17:25.948Z,11.55
2022-10-10T09:20:03.825Z,6.82
2022-10-10T09:22:46.694Z,6.70
2022-10-10T09:25:23.623Z,6.95
2022-10-10T09:28:12.721Z,13.05
2022-10-10T09:30:51.224Z,8.60
2022-10-10T09:33:25.665Z,11.13
2022-10-10T09:35:59.334Z,7.20
2022-10-10T09:38:59.460Z,10.30
2022-10-10T09:41:46.419Z,8.60
2022-10-10T09:44:21.659Z,8.82
2022-10-10T09:46:53.717Z,8.55
2022-10-10T09:49:25.784Z,7.93
2022-10-10T09:51:58.173Z,7.03
2022-10-10T09:54:30.225Z,8.10
2022-10-10T09:57:05.220Z,8.93
2022-10-10T09:59:46.424Z,8.43
2022-10-10T10:02:20.802Z,8.40
2022-10-10T10:04:53.782Z,5.28
2022-10-10T10:07:32.001Z,7.65
2022-10-10T10:10:18.751Z,9.65
2022-10-10T10:12:55.005Z,11.15
2022-10-10T10:15:30.617Z,7.10
2022-10-10T10:18:13.242Z,7.28
2022-10-10T10:20:48.023Z,8.43
2022-10-10T10:23:53.604Z,12.20
2022-10-10T10:26:28.037Z,7.80
2022-10-10T10:29:01.054Z,13.75
2022-10-10T10:32:11.866Z,8.10
2022-10-10T10:34:49.447Z,7.60
2022-10-10T10:37:43.673Z,6.78
2022-10-10T10:40:36.631Z,6.55
2022-10-10T10:43:51.901Z,8.30
2022-10-10T10:46:38.553Z,7.95
2022-10-10T10:49:42.575Z,6.78
2022-10-10T10:52:21.530Z,8.55
2022-10-10T10:55:02.197Z,7.40
2022-10-10T10:58:10.301Z,6.47
2022-10-10T11:01:23.961Z,6.05
2022-10-10T11:05:16.323Z,7.72
2022-10-10T11:06:59.963Z,7.07
2022-10-10T11:09:50.193Z,7.65
2022-10-10T11:12:41.931Z,7.65
2022-10-10T11:15:13.764Z,6.50
2022-10-10T11:17:54.359Z,7.57
2022-10-10T11:20:53.588Z,5.53
2022-10-10T11:23:36.477Z,10.57
2022-10-10T11:26:23.136Z,6.43
2022-10-10T11:29:15.019Z,5.85
2022-10-10T11:31:59.868Z,7.38
2022-10-10T11:34:55.434Z,6.03
2022-10-10T11:37:43.209Z,7.63
2022-10-10T11:40:30.707Z,6.20
2022-10-10T11:43:12.488Z,5.07
2022-10-10T11:45:51.094Z,5.70
2022-10-10T11:48:53.407Z,4.88
2022-10-10T11:51:37.565Z,6.57
2022-10-10T11:54:25.804Z,6.65
2022-10-10T11:57:03.359Z,7.97
2022-10-10T11:59:41.889Z,7.47
2022-10-10T12:02:36.424Z,7.57
2022-10-10T12:05:32.530Z,5.97
2022-10-10T12:08:49.326Z,5.78
2022-10-10T12:11:47.794Z,5.55
2022-10-10T12:14:22.384Z,6.97
2022-10-10T12:16:54.348Z,7.00
2022-10-10T12:19:28.677Z,6.97
2022-10-10T12:22:06.137Z,6.55
2022-10-10T12:25:20.620Z,7.20
2022-10-10T12:28:22.438Z,7.20
2022-10-10T12:30:58.452Z,6.50
2022-10-10T12:33:33.553Z,6.35
2022-10-10T12:36:37.617Z,6.20
2022-10-10T12:39:10.863Z,5.95
2022-10-10T12:41:57.142Z,6.53
2022-10-10T12:44:34.559Z,7.38
2022-10-10T12:47:15.240Z,5.43
2022-10-10T12:49:57.579Z,5.88
2022-10-10T12:52:49.639Z,4.25
2022-10-10T12:55:32.478Z,5.38
2022-10-10T12:58:12.149Z,7.03
2022-10-10T13:00:49.924Z,4.85
2022-10-10T13:03:28.296Z,6.40
2022-10-10T13:06:15.355Z,5.90
2022-10-10T13:08:48.046Z,7.72
2022-10-10T13:11:19.785Z,4.97
2022-10-10T13:14:01.317Z,5.10
2022-10-10T13:16:43.956Z,4.95
2022-10-10T13:19:24.498Z,4.85
2022-10-10T13:21:56.433Z,9.18
2022-10-10T13:24:31.657Z,7.13
2022-10-10T13:27:03.525Z,6.75
2022-10-10T13:29:41.845Z,4.00
2022-10-10T13:32:28.011Z,5.40
2022-10-10T13:35:04.252Z,9.25
2022-10-10T13:37:36.488Z,5.90
2022-10-10T13:40:19.511Z,9.73
2022-10-10T13:42:52.342Z,4.97
2022-10-10T13:45:30.770Z,5.22
2022-10-10T13:48:02.587Z,5.80
2022-10-10T13:50:43.464Z,5.38
2022-10-10T13:53:30.441Z,9.10
2022-10-10T13:56:13.694Z,8.38
2022-10-10T13:59:00.749Z,7.40
2022-10-10T14:01:44.466Z,7.68
2022-10-10T14:04:22.079Z,8.70
2022-10-10T14:07:01.289Z,8.70
2022-10-10T14:09:48.000Z,6.32
2022-10-10T14:12:28.211Z,4.95
2022-10-10T14:15:00.946Z,8.18
2022-10-10T14:17:32.625Z,14.20
2022-10-10T14:20:09.697Z,8.95
2022-10-10T14:22:41.600Z,13.05
2022-10-10T14:25:14.229Z,7.13
2022-10-10T14:27:46.083Z,5.03
2022-10-10T14:30:17.847Z,4.55
2022-10-10T14:32:49.533Z,10.68
2022-10-10T14:35:21.310Z,6.97
2022-10-10T14:37:55.909Z,8.93
2022-10-10T14:40:30.560Z,6.57
2022-10-10T14:43:02.453Z,6.38
2022-10-10T14:45:34.328Z,4.85
2022-10-10T14:48:06.720Z,7.57
2022-10-10T14:50:44.192Z,6.10
2022-10-10T14:53:16.488Z,6.68
2022-10-10T14:55:51.328Z,9.77
2022-10-10T14:58:25.645Z,5.80
2022-10-10T15:00:57.790Z,8.30
2022-10-10T15:03:29.655Z,9.63
2022-10-10T15:06:01.406Z,5.63
2022-10-10T15:08:33.493Z,9.13
2022-10-10T15:11:05.691Z,8.13
2022-10-10T15:13:39.339Z,9.05
2022-10-10T15:16:11.296Z,5.93
2022-10-10T15:18:58.586Z,5.68
2022-10-10T15:21:32.904Z,9.30
2022-10-10T15:24:04.983Z,8.10
2022-10-10T15:26:36.718Z,7.40
2022-10-10T15:29:08.434Z,6.43
2022-10-10T15:31:40.236Z,8.25
2022-10-10T15:34:12.050Z,6.72
2022-10-10T15:36:43.727Z,8.27
2022-10-10T15:39:15.871Z,11.43
2022-10-10T15:41:47.491Z,7.50
2022-10-10T15:44:19.355Z,9.63
2022-10-10T15:46:51.045Z,9.35
2022-10-10T15:49:22.881Z,6.90
2022-10-10T15:51:54.619Z,8.63
2022-10-10T15:54:26.419Z,14.25
2022-10-10T15:56:58.149Z,9.30
2022-10-10T15:59:30.265Z,10.52
2022-10-10T16:02:02.053Z,5.40
2022-10-10T16:04:33.757Z,6.18
2022-10-10T16:07:25.548Z,7.78
2022-10-10T16:09:59.099Z,13.95
2022-10-10T16:12:30.778Z,13.88
2022-10-10T16:15:06.929Z,12.38
2022-10-10T16:17:38.946Z,6.28
2022-10-10T16:20:11.032Z,10.15
2022-10-10T16:22:42.764Z,8.50
2022-10-10T16:25:22.386Z,7.55
2022-10-10T16:27:54.806Z,56.63
2022-10-10T16:30:26.635Z,41.40
2022-10-10T16:33:01.902Z,24.02
2022-10-10T16:35:37.813Z,12.50
2022-10-10T16:38:09.695Z,11.98
2022-10-10T16:40:41.516Z,9.00
2022-10-10T16:43:13.312Z,9.68
2022-10-10T16:45:46.000Z,8.75
2022-10-10T16:48:17.687Z,9.57
2022-10-10T16:50:50.006Z,9.77
2022-10-10T16:53:21.772Z,6.70
2022-10-10T16:55:53.413Z,6.43
2022-10-10T16:58:25.456Z,5.05
2022-10-10T17:00:59.419Z,9.05
2022-10-10T17:03:34.329Z,9.15
2022-10-10T17:06:17.615Z,8.27
2022-10-10T17:08:51.903Z,10.88
2022-10-10T17:11:24.356Z,9.27
2022-10-10T17:13:56.270Z,12.63
2022-10-10T17:19:23.636Z,12.45
2022-10-10T17:21:55.405Z,10.32
2022-10-10T17:24:27.197Z,11.65
2022-10-10T17:26:58.879Z,12.05
2022-10-10T17:29:30.579Z,13.52
2022-10-10T17:32:06.186Z,10.52
2022-10-10T17:34:38.341Z,12.82
2022-10-10T17:37:10.324Z,15.07
2022-10-10T17:39:42.144Z,15.27
2022-10-10T17:42:14.077Z,10.80
2022-10-10T17:44:51.513Z,11.90
2022-10-10T17:47:27.593Z,13.68
2022-10-10T17:49:59.335Z,12.80
2022-10-10T17:52:34.448Z,14.20
2022-10-10T17:55:06.620Z,13.20
2022-10-10T17:57:38.407Z,10.65
2022-10-10T18:00:10.740Z,12.75
2022-10-10T18:02:44.543Z,10.02
2022-10-10T18:05:18.329Z,14.82
2022-10-10T18:07:50.423Z,15.57
2022-10-10T18:10:22.190Z,14.23
2022-10-10T18:12:54.007Z,8.75
2022-10-10T18:15:25.701Z,10.45
2022-10-10T18:17:57.792Z,12.75
2022-10-10T18:20:29.659Z,14.07
2022-10-10T18:23:01.612Z,10.70
2022-10-10T18:25:33.784Z,12.52
2022-10-10T18:28:08.069Z,9.80
2022-10-10T18:30:40.291Z,13.82
2022-10-10T18:33:12.014Z,12.90
2022-10-10T18:35:43.821Z,14.80
2022-10-10T18:38:21.241Z,13.38
2022-10-10T18:41:07.894Z,12.63
2022-10-10T18:43:40.836Z,9.98
2022-10-10T18:46:15.652Z,12.50
2022-10-10T18:48:51.486Z,13.82
2022-10-10T18:51:29.438Z,14.48
2022-10-10T18:54:04.451Z,13.52
2022-10-10T18:56:38.128Z,12.73
2022-10-10T18:59:22.267Z,13.43
2022-10-10T19:01:54.127Z,10.60
2022-10-10T19:04:26.163Z,12.65
2022-10-10T19:06:58.046Z,12.73
2022-10-10T19:09:31.015Z,13.95
2022-10-10T19:12:02.828Z,10.88
2022-10-10T19:14:34.653Z,15.50
2022-10-10T19:17:09.103Z,16.40
2022-10-10T19:19:40.918Z,12.45
2022-10-10T19:22:13.113Z,17.63
2022-10-10T19:24:44.963Z,13.77
2022-10-10T19:27:16.596Z,12.93
2022-10-10T19:29:50.697Z,16.05
2022-10-10T19:32:22.417Z,15.27
2022-10-10T19:34:54.202Z,16.17
2022-10-10T19:37:26.527Z,19.13
2022-10-10T19:39:58.592Z,17.00
2022-10-10T19:42:30.478Z,16.10
2022-10-10T19:45:02.625Z,16.67
2022-10-10T19:47:34.477Z,15.85
2022-10-10T19:50:06.678Z,17.05
2022-10-10T19:52:38.403Z,13.57
2022-10-10T19:55:10.847Z,17.95
2022-10-10T19:57:42.556Z,14.20
2022-10-10T20:00:14.802Z,16.15
2022-10-10T20:02:46.945Z,17.13
2022-10-10T20:05:18.741Z,19.10
2022-10-10T20:07:50.882Z,17.13
2022-10-10T20:10:23.506Z,14.85
2022-10-10T20:12:55.467Z,17.08
2022-10-10T20:15:27.208Z,18.10
2022-10-10T20:17:59.063Z,18.55
2022-10-10T20:20:30.792Z,16.40
2022-10-10T20:23:02.807Z,15.70
2022-10-10T20:25:42.531Z,19.60
2022-10-10T20:28:16.115Z,16.60
2022-10-10T20:30:50.567Z,17.80
2022-10-10T20:33:22.390Z,15.65
2022-10-10T20:35:56.226Z,16.63
2022-10-10T20:38:28.097Z,18.00
2022-10-10T20:41:02.995Z,17.80
2022-10-10T20:43:36.092Z,21.85
2022-10-10T20:46:10.406Z,18.02
2022-10-10T20:48:42.168Z,15.45
2022-10-10T20:51:14.064Z,18.23
2022-10-10T20:53:45.828Z,16.65
2022-10-10T20:56:17.545Z,18.27
2022-10-10T20:58:49.209Z,16.40
2022-10-10T21:01:24.864Z,16.73
2022-10-10T21:03:57.164Z,16.10
2022-10-10T21:06:34.536Z,15.95
2022-10-10T21:09:08.764Z,18.13
2022-10-10T21:11:41.632Z,20.02
2022-10-10T21:14:13.559Z,21.92
2022-10-10T21:16:45.550Z,15.50
2022-10-10T21:19:18.025Z,17.98
2022-10-10T21:21:49.761Z,17.30
2022-10-10T21:24:21.415Z,15.52
2022-10-10T21:26:53.146Z,15.93
2022-10-10T21:29:24.852Z,15.18
2022-10-10T21:31:56.596Z,16.05
2022-10-10T21:34:28.242Z,14.48
2022-10-10T21:37:00.025Z,14.40
2022-10-10T21:39:32.058Z,15.93
2022-10-10T21:42:04.141Z,16.58
2022-10-10T21:44:35.825Z,13.90
2022-10-10T21:47:07.562Z,15.18
2022-10-10T21:49:42.776Z,18.15
2022-10-10T21:52:14.746Z,16.27
2022-10-10T21:54:46.437Z,20.15
2022-10-10T21:57:18.526Z,14.75
2022-10-10T21:59:50.273Z,18.67
2022-10-10T22:02:22.106Z,20.00
2022-10-10T22:04:54.713Z,17.08
2022-10-10T22:07:26.372Z,15.95
2022-10-10T22:10:00.876Z,16.33
2022-10-10T22:12:32.680Z,16.20
2022-10-10T22:15:04.579Z,17.02
2022-10-10T22:17:37.127Z,17.80
2022-10-10T22:20:10.291Z,21.98
2022-10-10T22:22:43.379Z,20.33
2022-10-10T22:25:17.495Z,18.00
2022-10-10T22:27:49.227Z,16.67
2022-10-10T22:30:21.239Z,16.65
2022-10-10T22:32:53.069Z,16.42
2022-10-10T22:35:27.747Z,16.65
2022-10-10T22:38:00.102Z,14.88
2022-10-10T22:40:32.042Z,14.30
2022-10-10T22:43:03.847Z,18.95
2022-10-10T22:45:35.577Z,18.55
2022-10-10T22:48:07.280Z,16.67
2022-10-10T22:50:41.725Z,18.80
2022-10-10T22:53:13.476Z,21.23
2022-10-10T22:55:45.141Z,15.93
2022-10-10T22:58:16.772Z,16.77
2022-10-10T23:00:48.515Z,18.58
2022-10-10T23:03:20.657Z,16.65
2022-10-10T23:05:52.377Z,19.60
2022-10-10T23:08:24.482Z,15.13
2022-10-10T23:10:56.856Z,17.63
2022-10-10T23:13:29.265Z,14.98
2022-10-10T23:16:01.374Z,17.75
2022-10-10T23:18:33.381Z,22.17
2022-10-10T23:21:05.114Z,15.48
2022-10-10T23:23:37.300Z,16.70
2022-10-10T23:26:09.281Z,22.63
2022-10-10T23:28:45.901Z,15.82
2022-10-10T23:33:49.481Z,16.13
2022-10-10T23:36:21.158Z,15.45
2022-10-10T23:38:52.983Z,15.80
2022-10-10T23:41:25.069Z,17.00
2022-10-10T23:43:56.791Z,15.95
2022-10-10T23:46:28.434Z,18.70
2022-10-10T23:49:00.251Z,22.27
2022-10-10T23:51:32.198Z,16.13
2022-10-10T23:54:04.000Z,19.08
2022-10-10T23:56:35.752Z,18.52
2022-10-10T23:59:07.533Z,18.77
